sensor_id;sensor_type;location;lat;lon;timestamp;pressure;altitude;pressure_sealevel;temperature;humidity
66627;BME280;53498;50.422;14.912;2024-01-16T00:01:59;-23982.97;;;-0.83;100.00
66627;BME280;53498;50.422;14.912;2024-01-16T00:04:25;-23982.34;;;-0.85;100.00
66627;BME280;53498;50.422;14.912;2024-01-16T00:06:52;-23983.28;;;-0.82;100.00
66627;BME280;53498;50.422;14.912;2024-01-16T00:09:17;-23982.97;;;-0.83;100.00
66627;BME280;53498;50.422;14.912;2024-01-16T00:11:43;-23982.03;;;-0.86;100.00
66627;BME280;53498;50.422;14.912;2024-01-16T00:14:09;-23982.66;;;-0.84;100.00
66627;BME280;53498;50.422;14.912;2024-01-16T00:16:47;-23982.03;;;-0.86;100.00
66627;BME280;53498;50.422;14.912;2024-01-16T00:19:14;-23982.34;;;-0.85;100.00
66627;BME280;53498;50.422;14.912;2024-01-16T00:21:43;-23983.91;;;-0.80;100.00
66627;BME280;53498;50.422;14.912;2024-01-16T00:24:12;-23982.50;;;-0.84;100.00
66627;BME280;53498;50.422;14.912;2024-01-16T00:26:38;-23983.59;;;-0.81;100.00
66627;BME280;53498;50.422;14.912;2024-01-16T00:29:03;-23981.41;;;-0.88;100.00
66627;BME280;53498;50.422;14.912;2024-01-16T00:31:29;-23983.59;;;-0.81;100.00
66627;BME280;53498;50.422;14.912;2024-01-16T00:33:55;-23979.88;;;-0.93;100.00
66627;BME280;53498;50.422;14.912;2024-01-16T00:36:20;-23981.41;;;-0.88;100.00
66627;BME280;53498;50.422;14.912;2024-01-16T00:38:46;-23977.84;;;-1.00;100.00
66627;BME280;53498;50.422;14.912;2024-01-16T00:41:15;-23978.31;;;-0.98;100.00
66627;BME280;53498;50.422;14.912;2024-01-16T00:43:42;-23975.97;;;-1.06;100.00
66627;BME280;53498;50.422;14.912;2024-01-16T00:46:07;-23975.66;;;-1.07;100.00
66627;BME280;53498;50.422;14.912;2024-01-16T00:48:33;-23973.94;;;-1.12;100.00
66627;BME280;53498;50.422;14.912;2024-01-16T00:50:58;-23970.84;;;-1.23;100.00
66627;BME280;53498;50.422;14.912;2024-01-16T00:53:26;-23970.06;;;-1.25;100.00
66627;BME280;53498;50.422;14.912;2024-01-16T00:55:52;-23972.38;;;-1.18;100.00
66627;BME280;53498;50.422;14.912;2024-01-16T00:58:21;-23970.22;;;-1.25;100.00
66627;BME280;53498;50.422;14.912;2024-01-16T01:00:46;-23968.03;;;-1.32;100.00
66627;BME280;53498;50.422;14.912;2024-01-16T01:03:12;-23968.97;;;-1.29;100.00
66627;BME280;53498;50.422;14.912;2024-01-16T01:05:38;-23967.88;;;-1.32;100.00
66627;BME280;53498;50.422;14.912;2024-01-16T01:08:04;-23970.53;;;-1.24;100.00
66627;BME280;53498;50.422;14.912;2024-01-16T01:10:30;-23970.69;;;-1.23;100.00
66627;BME280;53498;50.422;14.912;2024-01-16T01:12:55;-23969.13;;;-1.28;100.00
66627;BME280;53498;50.422;14.912;2024-01-16T01:15:21;-23967.56;;;-1.33;100.00
66627;BME280;53498;50.422;14.912;2024-01-16T01:17:50;-23967.41;;;-1.34;100.00
66627;BME280;53498;50.422;14.912;2024-01-16T01:20:17;-23966.47;;;-1.37;100.00
66627;BME280;53498;50.422;14.912;2024-01-16T01:22:43;-23967.56;;;-1.33;100.00
66627;BME280;53498;50.422;14.912;2024-01-16T01:25:09;-23966.47;;;-1.37;100.00
66627;BME280;53498;50.422;14.912;2024-01-16T01:27:36;-23968.50;;;-1.30;100.00
66627;BME280;53498;50.422;14.912;2024-01-16T01:30:01;-23966.94;;;-1.35;100.00
66627;BME280;53498;50.422;14.912;2024-01-16T01:32:27;-23963.81;;;-1.46;100.00
66627;BME280;53498;50.422;14.912;2024-01-16T01:34:53;-23964.59;;;-1.43;100.00
66627;BME280;53498;50.422;14.912;2024-01-16T01:37:21;-23964.91;;;-1.42;100.00
66627;BME280;53498;50.422;14.912;2024-01-16T01:39:47;-23963.19;;;-1.48;100.00
66627;BME280;53498;50.422;14.912;2024-01-16T01:42:12;-23967.41;;;-1.34;100.00
66627;BME280;53498;50.422;14.912;2024-01-16T01:44:38;-23968.34;;;-1.31;100.00
66627;BME280;53498;50.422;14.912;2024-01-16T01:47:04;-23971.63;;;-1.20;100.00
66627;BME280;53498;50.422;14.912;2024-01-16T01:49:30;-23974.25;;;-1.11;100.00
66627;BME280;53498;50.422;14.912;2024-01-16T01:51:56;-23975.81;;;-1.06;100.00
66627;BME280;53498;50.422;14.912;2024-01-16T01:54:22;-23973.78;;;-1.13;100.00
66627;BME280;53498;50.422;14.912;2024-01-16T01:56:49;-23974.09;;;-1.12;100.00
66627;BME280;53498;50.422;14.912;2024-01-16T01:59:18;-23974.56;;;-1.10;100.00
66627;BME280;53498;50.422;14.912;2024-01-16T02:01:45;-23973.31;;;-1.14;100.00
66627;BME280;53498;50.422;14.912;2024-01-16T02:04:14;-23975.50;;;-1.07;100.00
66627;BME280;53498;50.422;14.912;2024-01-16T02:06:43;-23976.13;;;-1.05;100.00
66627;BME280;53498;50.422;14.912;2024-01-16T02:09:10;-23975.50;;;-1.07;100.00
66627;BME280;53498;50.422;14.912;2024-01-16T02:11:36;-23976.44;;;-1.04;100.00
66627;BME280;53498;50.422;14.912;2024-01-16T02:14:01;-23977.69;;;-1.00;100.00
66627;BME280;53498;50.422;14.912;2024-01-16T02:16:35;-23976.28;;;-1.05;100.00
66627;BME280;53498;50.422;14.912;2024-01-16T02:19:01;-23975.50;;;-1.07;100.00
66627;BME280;53498;50.422;14.912;2024-01-16T02:21:28;-23978.94;;;-0.96;100.00
66627;BME280;53498;50.422;14.912;2024-01-16T02:23:56;-23979.25;;;-0.95;100.00
66627;BME280;53498;50.422;14.912;2024-01-16T02:26:22;-23980.31;;;-0.91;100.00
66627;BME280;53498;50.422;14.912;2024-01-16T02:28:48;-23982.03;;;-0.86;100.00
66627;BME280;53498;50.422;14.912;2024-01-16T02:31:14;-23979.72;;;-0.94;100.00
66627;BME280;53498;50.422;14.912;2024-01-16T02:33:39;-23975.81;;;-1.06;100.00
66627;BME280;53498;50.422;14.912;2024-01-16T02:36:05;-23976.13;;;-1.05;100.00
66627;BME280;53498;50.422;14.912;2024-01-16T02:38:30;-23976.28;;;-1.05;100.00
66627;BME280;53498;50.422;14.912;2024-01-16T02:40:56;-23977.69;;;-1.00;100.00
66627;BME280;53498;50.422;14.912;2024-01-16T02:43:22;-23978.00;;;-0.99;100.00
66627;BME280;53498;50.422;14.912;2024-01-16T02:45:48;-23977.38;;;-1.01;100.00
66627;BME280;53498;50.422;14.912;2024-01-16T02:48:14;-23981.41;;;-0.88;100.00
66627;BME280;53498;50.422;14.912;2024-01-16T02:50:39;-23980.78;;;-0.90;100.00
66627;BME280;53498;50.422;14.912;2024-01-16T02:53:05;-23982.97;;;-0.83;100.00
66627;BME280;53498;50.422;14.912;2024-01-16T02:55:30;-23983.91;;;-0.80;100.00
66627;BME280;53498;50.422;14.912;2024-01-16T02:57:56;-23985.47;;;-0.75;100.00
66627;BME280;53498;50.422;14.912;2024-01-16T03:00:21;-23987.03;;;-0.70;100.00
66627;BME280;53498;50.422;14.912;2024-01-16T03:02:48;-23986.09;;;-0.73;100.00
66627;BME280;53498;50.422;14.912;2024-01-16T03:05:14;-23985.16;;;-0.76;100.00
66627;BME280;53498;50.422;14.912;2024-01-16T03:07:41;-23985.78;;;-0.74;100.00
66627;BME280;53498;50.422;14.912;2024-01-16T03:10:06;-23988.88;;;-0.63;100.00
66627;BME280;53498;50.422;14.912;2024-01-16T03:12:32;-23987.34;;;-0.68;100.00
66627;BME280;53498;50.422;14.912;2024-01-16T03:14:58;-23985.47;;;-0.75;100.00
66627;BME280;53498;50.422;14.912;2024-01-16T03:17:23;-23986.09;;;-0.73;100.00
66627;BME280;53498;50.422;14.912;2024-01-16T03:19:49;-23986.09;;;-0.73;100.00
66627;BME280;53498;50.422;14.912;2024-01-16T03:22:14;-23983.59;;;-0.81;100.00
66627;BME280;53498;50.422;14.912;2024-01-16T03:24:40;-23984.22;;;-0.79;100.00
66627;BME280;53498;50.422;14.912;2024-01-16T03:27:06;-23982.03;;;-0.86;100.00
66627;BME280;53498;50.422;14.912;2024-01-16T03:29:31;-23980.16;;;-0.92;100.00
66627;BME280;53498;50.422;14.912;2024-01-16T03:31:59;-23982.66;;;-0.84;100.00
66627;BME280;53498;50.422;14.912;2024-01-16T03:34:24;-23982.50;;;-0.84;100.00
66627;BME280;53498;50.422;14.912;2024-01-16T03:36:50;-23980.47;;;-0.91;100.00
66627;BME280;53498;50.422;14.912;2024-01-16T03:39:16;-23979.09;;;-0.96;100.00
66627;BME280;53498;50.422;14.912;2024-01-16T03:41:41;-23976.75;;;-1.03;100.00
66627;BME280;53498;50.422;14.912;2024-01-16T03:44:07;-23977.06;;;-1.02;100.00
66627;BME280;53498;50.422;14.912;2024-01-16T03:46:32;-23976.91;;;-1.03;100.00
66627;BME280;53498;50.422;14.912;2024-01-16T03:48:58;-23974.88;;;-1.09;100.00
66627;BME280;53498;50.422;14.912;2024-01-16T03:51:24;-23975.34;;;-1.08;100.00
66627;BME280;53498;50.422;14.912;2024-01-16T03:53:49;-23977.38;;;-1.01;100.00
66627;BME280;53498;50.422;14.912;2024-01-16T03:56:15;-23976.59;;;-1.04;100.00
66627;BME280;53498;50.422;14.912;2024-01-16T03:58:41;-23980.31;;;-0.91;100.00
66627;BME280;53498;50.422;14.912;2024-01-16T04:01:07;-23979.25;;;-0.95;100.00
66627;BME280;53498;50.422;14.912;2024-01-16T04:03:33;-23979.41;;;-0.95;100.00
66627;BME280;53498;50.422;14.912;2024-01-16T04:06:00;-23980.16;;;-0.92;100.00
66627;BME280;53498;50.422;14.912;2024-01-16T04:08:26;-23982.34;;;-0.85;100.00
66627;BME280;53498;50.422;14.912;2024-01-16T04:10:51;-23984.84;;;-0.77;100.00
66627;BME280;53498;50.422;14.912;2024-01-16T04:13:17;-23983.44;;;-0.81;100.00
66627;BME280;53498;50.422;14.912;2024-01-16T04:15:43;-23984.06;;;-0.79;100.00
66627;BME280;53498;50.422;14.912;2024-01-16T04:18:10;-23983.44;;;-0.81;100.00
66627;BME280;53498;50.422;14.912;2024-01-16T04:20:35;-23982.66;;;-0.84;100.00
66627;BME280;53498;50.422;14.912;2024-01-16T04:23:01;-23981.72;;;-0.87;100.00
66627;BME280;53498;50.422;14.912;2024-01-16T04:25:27;-23978.47;;;-0.98;100.00
66627;BME280;53498;50.422;14.912;2024-01-16T04:27:52;-23979.09;;;-0.96;100.00
66627;BME280;53498;50.422;14.912;2024-01-16T04:30:21;-23979.88;;;-0.93;100.00
66627;BME280;53498;50.422;14.912;2024-01-16T04:32:46;-23979.56;;;-0.94;100.00
66627;BME280;53498;50.422;14.912;2024-01-16T04:35:12;-23978.31;;;-0.98;100.00
66627;BME280;53498;50.422;14.912;2024-01-16T04:37:37;-23978.00;;;-0.99;100.00
66627;BME280;53498;50.422;14.912;2024-01-16T04:40:04;-23977.69;;;-1.00;100.00
66627;BME280;53498;50.422;14.912;2024-01-16T04:42:32;-23979.88;;;-0.93;100.00
66627;BME280;53498;50.422;14.912;2024-01-16T04:44:57;-23977.22;;;-1.02;100.00
66627;BME280;53498;50.422;14.912;2024-01-16T04:47:23;-23975.66;;;-1.07;100.00
66627;BME280;53498;50.422;14.912;2024-01-16T04:49:48;-23974.56;;;-1.10;100.00
66627;BME280;53498;50.422;14.912;2024-01-16T04:52:14;-23972.69;;;-1.17;100.00
66627;BME280;53498;50.422;14.912;2024-01-16T04:54:42;-23973.00;;;-1.15;100.00
66627;BME280;53498;50.422;14.912;2024-01-16T04:57:10;-23973.78;;;-1.13;100.00
66627;BME280;53498;50.422;14.912;2024-01-16T04:59:36;-23972.22;;;-1.18;100.00
66627;BME280;53498;50.422;14.912;2024-01-16T05:02:02;-23973.78;;;-1.13;100.00
66627;BME280;53498;50.422;14.912;2024-01-16T05:04:27;-23972.84;;;-1.16;100.00
66627;BME280;53498;50.422;14.912;2024-01-16T05:06:53;-23971.63;;;-1.20;100.00
66627;BME280;53498;50.422;14.912;2024-01-16T05:09:18;-23970.22;;;-1.25;100.00
66627;BME280;53498;50.422;14.912;2024-01-16T05:11:46;-23968.97;;;-1.29;100.00
66627;BME280;53498;50.422;14.912;2024-01-16T05:14:12;-23968.34;;;-1.31;100.00
66627;BME280;53498;50.422;14.912;2024-01-16T05:16:38;-23969.28;;;-1.28;100.00
66627;BME280;53498;50.422;14.912;2024-01-16T05:19:03;-23968.66;;;-1.30;100.00
66627;BME280;53498;50.422;14.912;2024-01-16T05:21:29;-23970.84;;;-1.23;100.00
66627;BME280;53498;50.422;14.912;2024-01-16T05:23:54;-23971.94;;;-1.19;100.00
66627;BME280;53498;50.422;14.912;2024-01-16T05:26:20;-23968.66;;;-1.30;100.00
66627;BME280;53498;50.422;14.912;2024-01-16T05:28:45;-23969.13;;;-1.28;100.00
66627;BME280;53498;50.422;14.912;2024-01-16T05:31:11;-23969.28;;;-1.28;100.00
66627;BME280;53498;50.422;14.912;2024-01-16T05:33:36;-23967.88;;;-1.32;100.00
66627;BME280;53498;50.422;14.912;2024-01-16T05:36:02;-23965.84;;;-1.39;100.00
66627;BME280;53498;50.422;14.912;2024-01-16T05:38:28;-23968.03;;;-1.32;100.00
66627;BME280;53498;50.422;14.912;2024-01-16T05:40:53;-23966.47;;;-1.37;100.00
66627;BME280;53498;50.422;14.912;2024-01-16T05:43:19;-23965.53;;;-1.40;100.00
66627;BME280;53498;50.422;14.912;2024-01-16T05:45:44;-23968.66;;;-1.30;100.00
66627;BME280;53498;50.422;14.912;2024-01-16T05:48:10;-23967.56;;;-1.33;100.00
66627;BME280;53498;50.422;14.912;2024-01-16T05:50:36;-23967.41;;;-1.34;100.00
66627;BME280;53498;50.422;14.912;2024-01-16T05:53:02;-23966.16;;;-1.38;100.00
66627;BME280;53498;50.422;14.912;2024-01-16T05:55:28;-23968.81;;;-1.29;100.00
66627;BME280;53498;50.422;14.912;2024-01-16T05:57:57;-23969.75;;;-1.26;100.00
66627;BME280;53498;50.422;14.912;2024-01-16T06:00:24;-23969.59;;;-1.27;100.00
66627;BME280;53498;50.422;14.912;2024-01-16T06:02:50;-23967.56;;;-1.33;100.00
66627;BME280;53498;50.422;14.912;2024-01-16T06:05:16;-23965.69;;;-1.40;100.00
66627;BME280;53498;50.422;14.912;2024-01-16T06:07:41;-23965.06;;;-1.42;100.00
66627;BME280;53498;50.422;14.912;2024-01-16T06:10:07;-23964.91;;;-1.42;100.00
66627;BME280;53498;50.422;14.912;2024-01-16T06:12:33;-23962.44;;;-1.50;100.00
66627;BME280;53498;50.422;14.912;2024-01-16T06:14:59;-23963.03;;;-1.48;100.00
66627;BME280;53498;50.422;14.912;2024-01-16T06:17:24;-23962.75;;;-1.49;100.00
66627;BME280;53498;50.422;14.912;2024-01-16T06:19:50;-23963.03;;;-1.48;100.00
66627;BME280;53498;50.422;14.912;2024-01-16T06:22:16;-23964.59;;;-1.43;100.00
66627;BME280;53498;50.422;14.912;2024-01-16T06:24:41;-23965.53;;;-1.40;100.00
66627;BME280;53498;50.422;14.912;2024-01-16T06:27:07;-23964.28;;;-1.44;100.00
66627;BME280;53498;50.422;14.912;2024-01-16T06:29:33;-23966.16;;;-1.38;100.00
66627;BME280;53498;50.422;14.912;2024-01-16T06:31:58;-23964.91;;;-1.42;100.00
66627;BME280;53498;50.422;14.912;2024-01-16T06:34:24;-23964.59;;;-1.43;100.00
66627;BME280;53498;50.422;14.912;2024-01-16T06:36:49;-23963.38;;;-1.47;100.00
66627;BME280;53498;50.422;14.912;2024-01-16T06:39:15;-23963.03;;;-1.48;100.00
66627;BME280;53498;50.422;14.912;2024-01-16T06:41:41;-23959.94;;;-1.58;100.00
66627;BME280;53498;50.422;14.912;2024-01-16T06:44:07;-23957.44;;;-1.67;100.00
66627;BME280;53498;50.422;14.912;2024-01-16T06:46:33;-23956.50;;;-1.70;100.00
66627;BME280;53498;50.422;14.912;2024-01-16T06:49:01;-23955.88;;;-1.72;100.00
66627;BME280;53498;50.422;14.912;2024-01-16T06:51:27;-23956.50;;;-1.70;100.00
66627;BME280;53498;50.422;14.912;2024-01-16T06:53:53;-23957.59;;;-1.66;100.00
66627;BME280;53498;50.422;14.912;2024-01-16T06:56:19;-23958.84;;;-1.62;100.00
66627;BME280;53498;50.422;14.912;2024-01-16T06:58:44;-23961.50;;;-1.53;100.00
66627;BME280;53498;50.422;14.912;2024-01-16T07:01:10;-23961.81;;;-1.52;100.00
66627;BME280;53498;50.422;14.912;2024-01-16T07:03:35;-23963.38;;;-1.47;100.00
66627;BME280;53498;50.422;14.912;2024-01-16T07:06:01;-23962.25;;;-1.51;100.00
66627;BME280;53498;50.422;14.912;2024-01-16T07:08:27;-23963.03;;;-1.48;100.00
66627;BME280;53498;50.422;14.912;2024-01-16T07:10:53;-23961.03;;;-1.55;100.00
66627;BME280;53498;50.422;14.912;2024-01-16T07:13:19;-23960.09;;;-1.58;100.00
66627;BME280;53498;50.422;14.912;2024-01-16T07:15:45;-23960.72;;;-1.56;100.00
66627;BME280;53498;50.422;14.912;2024-01-16T07:18:10;-23960.56;;;-1.56;100.00
66627;BME280;53498;50.422;14.912;2024-01-16T07:20:36;-23958.84;;;-1.62;100.00
66627;BME280;53498;50.422;14.912;2024-01-16T07:23:02;-23956.97;;;-1.68;100.00
66627;BME280;53498;50.422;14.912;2024-01-16T07:25:28;-23957.75;;;-1.66;100.00
66627;BME280;53498;50.422;14.912;2024-01-16T07:27:53;-23958.22;;;-1.64;100.00
66627;BME280;53498;50.422;14.912;2024-01-16T07:30:19;-23956.03;;;-1.71;100.00
66627;BME280;53498;50.422;14.912;2024-01-16T07:32:45;-23956.19;;;-1.71;100.00
66627;BME280;53498;50.422;14.912;2024-01-16T07:35:11;-23957.28;;;-1.67;100.00
66627;BME280;53498;50.422;14.912;2024-01-16T07:37:36;-23957.44;;;-1.67;100.00
66627;BME280;53498;50.422;14.912;2024-01-16T07:40:03;-23959.31;;;-1.60;100.00
66627;BME280;53498;50.422;14.912;2024-01-16T07:42:31;-23958.38;;;-1.64;100.00
66627;BME280;53498;50.422;14.912;2024-01-16T07:45:06;-23959.16;;;-1.61;100.00
66627;BME280;53498;50.422;14.912;2024-01-16T07:47:31;-23961.81;;;-1.52;100.00
66627;BME280;53498;50.422;14.912;2024-01-16T07:49:59;-23962.75;;;-1.49;100.00
66627;BME280;53498;50.422;14.912;2024-01-16T07:52:25;-23963.50;;;-1.47;100.00
66627;BME280;53498;50.422;14.912;2024-01-16T07:54:51;-23963.38;;;-1.47;100.00
66627;BME280;53498;50.422;14.912;2024-01-16T07:57:16;-23965.69;;;-1.40;100.00
66627;BME280;53498;50.422;14.912;2024-01-16T07:59:42;-23963.97;;;-1.45;100.00
66627;BME280;53498;50.422;14.912;2024-01-16T08:02:07;-23965.06;;;-1.42;100.00
66627;BME280;53498;50.422;14.912;2024-01-16T08:04:34;-23966.47;;;-1.37;100.00
66627;BME280;53498;50.422;14.912;2024-01-16T08:07:00;-23972.38;;;-1.18;100.00
66627;BME280;53498;50.422;14.912;2024-01-16T08:09:26;-23973.47;;;-1.14;100.00
66627;BME280;53498;50.422;14.912;2024-01-16T08:11:52;-23979.56;;;-0.94;100.00
66627;BME280;53498;50.422;14.912;2024-01-16T08:14:17;-23986.25;;;-0.72;100.00
66627;BME280;53498;50.422;14.912;2024-01-16T08:16:43;-23992.00;;;-0.53;100.00
66627;BME280;53498;50.422;14.912;2024-01-16T08:19:09;-23996.97;;;-0.37;100.00
66627;BME280;53498;50.422;14.912;2024-01-16T08:21:34;-23996.34;;;-0.39;100.00
66627;BME280;53498;50.422;14.912;2024-01-16T08:24:00;-24000.72;;;-0.25;100.00
66627;BME280;53498;50.422;14.912;2024-01-16T08:26:25;-23998.53;;;-0.32;100.00
66627;BME280;53498;50.422;14.912;2024-01-16T08:28:51;-24000.25;;;-0.26;100.00
66627;BME280;53498;50.422;14.912;2024-01-16T08:31:17;-23994.34;;;-0.45;100.00
66627;BME280;53498;50.422;14.912;2024-01-16T08:33:46;-23991.84;;;-0.54;100.00
66627;BME280;53498;50.422;14.912;2024-01-16T08:36:13;-23990.75;;;-0.57;100.00
66627;BME280;53498;50.422;14.912;2024-01-16T08:38:38;-23989.50;;;-0.61;100.00
66627;BME280;53498;50.422;14.912;2024-01-16T08:41:04;-23990.44;;;-0.58;100.00
66627;BME280;53498;50.422;14.912;2024-01-16T08:43:35;-23989.19;;;-0.62;100.00
66627;BME280;53498;50.422;14.912;2024-01-16T08:46:01;-23989.50;;;-0.61;100.00
66627;BME280;53498;50.422;14.912;2024-01-16T08:48:26;-23988.88;;;-0.63;100.00
66627;BME280;53498;50.422;14.912;2024-01-16T08:50:52;-23994.81;;;-0.44;100.00
66627;BME280;53498;50.422;14.912;2024-01-16T08:53:20;-23991.84;;;-0.54;100.00
66627;BME280;53498;50.422;14.912;2024-01-16T08:55:48;-23992.78;;;-0.51;100.00
66627;BME280;53498;50.422;14.912;2024-01-16T08:58:14;-23995.13;;;-0.43;100.00
66627;BME280;53498;50.422;14.912;2024-01-16T09:00:40;-23998.53;;;-0.32;100.00
66627;BME280;53498;50.422;14.912;2024-01-16T09:03:06;-23994.81;;;-0.44;100.00
66627;BME280;53498;50.422;14.912;2024-01-16T09:05:33;-23990.75;;;-0.57;100.00
66627;BME280;53498;50.422;14.912;2024-01-16T09:08:01;-23990.75;;;-0.57;100.00
66627;BME280;53498;50.422;14.912;2024-01-16T09:10:28;-23991.22;;;-0.56;100.00
66627;BME280;53498;50.422;14.912;2024-01-16T09:12:55;-23993.56;;;-0.48;100.00
66627;BME280;53498;50.422;14.912;2024-01-16T09:15:20;-23993.09;;;-0.50;100.00
66627;BME280;53498;50.422;14.912;2024-01-16T09:17:46;-23996.19;;;-0.39;100.00
66627;BME280;53498;50.422;14.912;2024-01-16T09:20:11;-23997.59;;;-0.35;100.00
66627;BME280;53498;50.422;14.912;2024-01-16T09:22:37;-24001.66;;;-0.21;100.00
66627;BME280;53498;50.422;14.912;2024-01-16T09:25:03;-24004.91;;;-0.11;100.00
66627;BME280;53498;50.422;14.912;2024-01-16T09:27:29;-24006.94;;;-0.04;100.00
66627;BME280;53498;50.422;14.912;2024-01-16T09:29:54;-24012.53;;;0.14;100.00
66627;BME280;53498;50.422;14.912;2024-01-16T09:32:20;-24019.38;;;0.37;100.00
66627;BME280;53498;50.422;14.912;2024-01-16T09:34:46;-24024.34;;;0.53;100.00
66627;BME280;53498;50.422;14.912;2024-01-16T09:37:11;-24024.50;;;0.54;100.00
66627;BME280;53498;50.422;14.912;2024-01-16T09:39:42;-24021.25;;;0.43;100.00
66627;BME280;53498;50.422;14.912;2024-01-16T09:42:14;-24020.31;;;0.40;100.00
66627;BME280;53498;50.422;14.912;2024-01-16T09:44:41;-24017.50;;;0.31;100.00
66627;BME280;53498;50.422;14.912;2024-01-16T09:47:08;-24014.72;;;0.21;100.00
66627;BME280;53498;50.422;14.912;2024-01-16T09:49:36;-24014.72;;;0.21;100.00
66627;BME280;53498;50.422;14.912;2024-01-16T09:52:05;-24017.50;;;0.31;100.00
66627;BME280;53498;50.422;14.912;2024-01-16T09:54:30;-24023.41;;;0.50;100.00
66627;BME280;53498;50.422;14.912;2024-01-16T09:56:58;-24027.75;;;0.64;100.00
66627;BME280;53498;50.422;14.912;2024-01-16T09:59:24;-24031.81;;;0.78;100.00
66627;BME280;53498;50.422;14.912;2024-01-16T10:01:52;-24026.06;;;0.59;100.00
66627;BME280;53498;50.422;14.912;2024-01-16T10:04:19;-24024.03;;;0.52;100.00
66627;BME280;53498;50.422;14.912;2024-01-16T10:06:45;-24027.13;;;0.62;100.00
66627;BME280;53498;50.422;14.912;2024-01-16T10:09:15;-24026.84;;;0.61;100.00
66627;BME280;53498;50.422;14.912;2024-01-16T10:11:41;-24029.47;;;0.70;100.00
66627;BME280;53498;50.422;14.912;2024-01-16T10:14:07;-24032.13;;;0.79;100.00
66627;BME280;53498;50.422;14.912;2024-01-16T10:16:55;-24035.69;;;0.90;100.00
66627;BME280;53498;50.422;14.912;2024-01-16T10:19:22;-24037.41;;;0.96;99.12
66627;BME280;53498;50.422;14.912;2024-01-16T10:21:51;-24034.44;;;0.86;99.23
66627;BME280;53498;50.422;14.912;2024-01-16T10:24:17;-24029.47;;;0.70;97.86
66627;BME280;53498;50.422;14.912;2024-01-16T10:26:42;-24022.78;;;0.48;99.18
66627;BME280;53498;50.422;14.912;2024-01-16T10:29:08;-24018.75;;;0.35;100.00
66627;BME280;53498;50.422;14.912;2024-01-16T10:31:34;-24016.41;;;0.27;100.00
66627;BME280;53498;50.422;14.912;2024-01-16T10:34:00;-24022.47;;;0.47;100.00
66627;BME280;53498;50.422;14.912;2024-01-16T10:36:26;-24026.06;;;0.59;100.00
66627;BME280;53498;50.422;14.912;2024-01-16T10:38:51;-24029.00;;;0.68;99.51
66627;BME280;53498;50.422;14.912;2024-01-16T10:41:23;-24028.69;;;0.67;98.70
66627;BME280;53498;50.422;14.912;2024-01-16T10:44:05;-24031.66;;;0.77;96.98
66627;BME280;53498;50.422;14.912;2024-01-16T10:46:35;-24035.53;;;0.90;95.81
66627;BME280;53498;50.422;14.912;2024-01-16T10:49:04;-24035.53;;;0.90;93.54
66627;BME280;53498;50.422;14.912;2024-01-16T10:51:32;-24039.88;;;1.04;93.79
66627;BME280;53498;50.422;14.912;2024-01-16T10:53:59;-24045.00;;;1.21;92.76
66627;BME280;53498;50.422;14.912;2024-01-16T10:56:29;-24048.59;;;1.33;91.17
66627;BME280;53498;50.422;14.912;2024-01-16T10:59:05;-24052.31;;;1.45;91.66
66627;BME280;53498;50.422;14.912;2024-01-16T11:01:32;-24049.50;;;1.36;91.73
66627;BME280;53498;50.422;14.912;2024-01-16T11:03:58;-24050.75;;;1.40;92.10
66627;BME280;53498;50.422;14.912;2024-01-16T11:06:26;-24050.75;;;1.40;92.35
66627;BME280;53498;50.422;14.912;2024-01-16T11:08:53;-24041.44;;;1.09;90.42
66627;BME280;53498;50.422;14.912;2024-01-16T11:11:20;-24041.75;;;1.10;92.22
66627;BME280;53498;50.422;14.912;2024-01-16T11:13:48;-24044.22;;;1.19;91.50
66627;BME280;53498;50.422;14.912;2024-01-16T11:16:14;-24045.94;;;1.24;92.62
66627;BME280;53498;50.422;14.912;2024-01-16T11:18:39;-24038.94;;;1.01;92.97
66627;BME280;53498;50.422;14.912;2024-01-16T11:21:11;-24036.78;;;0.94;96.39
66627;BME280;53498;50.422;14.912;2024-01-16T11:23:37;-24038.34;;;0.99;97.74
66627;BME280;53498;50.422;14.912;2024-01-16T11:26:25;-24034.13;;;0.85;99.13
66627;BME280;53498;50.422;14.912;2024-01-16T11:28:53;-24027.47;;;0.63;100.00
66627;BME280;53498;50.422;14.912;2024-01-16T11:31:30;-24026.53;;;0.60;100.00
66627;BME280;53498;50.422;14.912;2024-01-16T11:33:56;-24024.19;;;0.53;100.00
66627;BME280;53498;50.422;14.912;2024-01-16T11:36:50;-24026.38;;;0.60;100.00
66627;BME280;53498;50.422;14.912;2024-01-16T11:39:23;-24024.34;;;0.53;100.00
66627;BME280;53498;50.422;14.912;2024-01-16T11:41:59;-24024.19;;;0.53;100.00
66627;BME280;53498;50.422;14.912;2024-01-16T11:44:44;-24021.84;;;0.45;100.00
66627;BME280;53498;50.422;14.912;2024-01-16T11:47:19;-24022.31;;;0.46;100.00
66627;BME280;53498;50.422;14.912;2024-01-16T11:49:50;-24020.78;;;0.41;100.00
66627;BME280;53498;50.422;14.912;2024-01-16T11:52:43;-24023.56;;;0.51;100.00
66627;BME280;53498;50.422;14.912;2024-01-16T12:00:41;-24026.69;;;0.61;100.00
66627;BME280;53498;50.422;14.912;2024-01-16T12:03:14;-24030.25;;;0.73;100.00
66627;BME280;53498;50.422;14.912;2024-01-16T12:05:42;-24028.69;;;0.67;100.00
66627;BME280;53498;50.422;14.912;2024-01-16T12:08:09;-24033.66;;;0.84;100.00
66627;BME280;53498;50.422;14.912;2024-01-16T12:10:46;-24032.13;;;0.79;100.00
66627;BME280;53498;50.422;14.912;2024-01-16T12:13:13;-24034.91;;;0.88;100.00
66627;BME280;53498;50.422;14.912;2024-01-16T12:15:39;-24035.84;;;0.91;100.00
66627;BME280;53498;50.422;14.912;2024-01-16T12:18:04;-24036.16;;;0.92;100.00
66627;BME280;53498;50.422;14.912;2024-01-16T12:20:32;-24039.88;;;1.04;100.00
66627;BME280;53498;50.422;14.912;2024-01-16T12:23:00;-24035.38;;;0.89;100.00
66627;BME280;53498;50.422;14.912;2024-01-16T12:25:27;-24041.13;;;1.08;100.00
66627;BME280;53498;50.422;14.912;2024-01-16T12:27:57;-24047.03;;;1.28;100.00
66627;BME280;53498;50.422;14.912;2024-01-16T12:30:27;-24045.31;;;1.22;98.50
66627;BME280;53498;50.422;14.912;2024-01-16T12:33:13;-24044.38;;;1.19;98.36
66627;BME280;53498;50.422;14.912;2024-01-16T12:38:05;-24042.38;;;1.12;96.84
66627;BME280;53498;50.422;14.912;2024-01-16T12:40:32;-24041.75;;;1.10;96.93